createdAt,value
2023-01-09T00:00:59.148Z,52.80
2023-01-09T00:03:26.283Z,52.80
2023-01-09T00:05:53.524Z,52.80
2023-01-09T00:08:20.480Z,52.70
2023-01-09T00:10:49.794Z,52.70
2023-01-09T00:13:18.103Z,52.70
2023-01-09T00:15:45.325Z,52.80
2023-01-09T00:18:12.259Z,53.00
2023-01-09T00:20:39.134Z,53.00
2023-01-09T00:23:06.122Z,52.90
2023-01-09T00:25:33.529Z,52.80
2023-01-09T00:28:00.465Z,52.90
2023-01-09T00:30:27.747Z,52.80
2023-01-09T00:32:55.696Z,52.80
2023-01-09T00:35:24.354Z,52.70
2023-01-09T00:37:51.360Z,52.70
2023-01-09T00:40:19.084Z,52.70
2023-01-09T00:42:52.475Z,52.70
2023-01-09T00:45:28.547Z,52.70
2023-01-09T00:47:59.516Z,52.70
2023-01-09T00:50:31.852Z,52.70
2023-01-09T00:53:02.380Z,52.70
2023-01-09T00:55:29.455Z,52.70
2023-01-09T00:57:56.681Z,52.70
2023-01-09T01:00:23.625Z,52.70
2023-01-09T01:02:50.650Z,52.70
2023-01-09T01:05:35.877Z,52.70
2023-01-09T01:08:02.838Z,52.60
2023-01-09T01:10:29.753Z,52.70
2023-01-09T01:12:56.687Z,52.70
2023-01-09T01:15:23.841Z,52.70
2023-01-09T01:17:50.784Z,52.60
2023-01-09T01:20:18.731Z,52.60
2023-01-09T01:22:45.888Z,52.60
2023-01-09T01:25:14.346Z,52.60
2023-01-09T01:27:41.615Z,52.60
2023-01-09T01:30:11.234Z,52.60
2023-01-09T01:32:38.542Z,53.30
2023-01-09T01:35:06.545Z,53.20
2023-01-09T01:37:34.670Z,52.60
2023-01-09T01:40:01.704Z,52.50
2023-01-09T01:42:28.596Z,52.50
2023-01-09T01:45:13.986Z,52.50
2023-01-09T01:47:40.860Z,52.40
2023-01-09T01:50:35.427Z,52.50
2023-01-09T01:53:19.029Z,52.50
2023-01-09T01:56:00.676Z,52.50
2023-01-09T01:58:27.921Z,52.50
2023-01-09T02:00:54.963Z,52.60
2023-01-09T02:03:26.692Z,52.60
2023-01-09T02:05:53.615Z,52.60
2023-01-09T02:08:21.377Z,52.50
2023-01-09T02:10:49.530Z,52.50
2023-01-09T02:13:16.613Z,52.50
2023-01-09T02:16:18.347Z,52.50
2023-01-09T02:18:48.386Z,52.50
2023-01-09T02:21:27.473Z,52.50
2023-01-09T02:24:06.497Z,52.50
2023-01-09T02:26:54.793Z,52.60
2023-01-09T02:29:30.974Z,52.50
2023-01-09T02:32:09.936Z,52.50
2023-01-09T02:34:47.724Z,52.50
2023-01-09T02:37:33.368Z,52.50
2023-01-09T02:40:31.179Z,52.40
2023-01-09T02:42:59.751Z,52.40
2023-01-09T02:45:26.766Z,52.60
2023-01-09T02:47:53.815Z,52.60
2023-01-09T02:50:24.142Z,52.50
2023-01-09T02:53:07.424Z,52.50
2023-01-09T02:55:43.187Z,52.50
2023-01-09T02:58:18.916Z,52.50
2023-01-09T03:01:04.854Z,52.40
2023-01-09T03:03:49.569Z,53.10
2023-01-09T03:06:22.557Z,52.40
2023-01-09T03:08:55.909Z,52.50
2023-01-09T03:11:23.113Z,52.50
2023-01-09T03:13:59.923Z,52.40
2023-01-09T03:16:36.767Z,52.40
2023-01-09T03:19:06.851Z,52.40
2023-01-09T03:21:34.537Z,52.40
2023-01-09T03:24:02.567Z,52.40
2023-01-09T03:26:31.074Z,52.40
2023-01-09T03:28:59.104Z,52.40
2023-01-09T03:31:26.332Z,52.40
2023-01-09T03:33:53.349Z,52.40
2023-01-09T03:36:21.554Z,52.30
2023-01-09T03:38:48.959Z,52.30
2023-01-09T03:41:16.015Z,52.30
2023-01-09T03:43:42.980Z,52.30
2023-01-09T03:46:10.050Z,52.30
2023-01-09T03:48:37.013Z,52.30
2023-01-09T03:51:03.952Z,52.30
2023-01-09T03:53:30.851Z,52.30
2023-01-09T03:55:58.788Z,52.20
2023-01-09T03:58:26.606Z,52.20
2023-01-09T04:01:04.807Z,52.20
2023-01-09T04:03:32.013Z,52.20
2023-01-09T04:05:58.906Z,52.20
2023-01-09T04:08:26.099Z,52.20
2023-01-09T04:10:53.030Z,52.30
2023-01-09T04:13:20.216Z,52.20
2023-01-09T04:15:47.109Z,52.30
2023-01-09T04:18:14.225Z,52.20
2023-01-09T04:20:41.461Z,52.20
2023-01-09T04:23:08.570Z,52.20
2023-01-09T04:25:35.549Z,52.20
2023-01-09T04:28:02.465Z,52.20
2023-01-09T04:30:29.356Z,52.20
2023-01-09T04:32:56.417Z,52.20
2023-01-09T04:35:23.391Z,52.20
2023-01-09T04:37:50.300Z,52.20
2023-01-09T04:40:17.972Z,52.20
2023-01-09T04:42:44.870Z,52.20
2023-01-09T04:45:12.341Z,52.10
2023-01-09T04:47:39.242Z,52.20
2023-01-09T04:50:06.505Z,52.20
2023-01-09T04:52:33.465Z,52.10
2023-01-09T04:55:00.359Z,52.20
2023-01-09T04:57:27.284Z,52.20
2023-01-09T04:59:54.387Z,52.20
2023-01-09T05:02:21.445Z,52.20
2023-01-09T05:04:48.523Z,52.20
2023-01-09T05:07:15.557Z,52.20
2023-01-09T05:09:43.551Z,52.20
2023-01-09T05:12:10.828Z,52.20
2023-01-09T05:14:37.712Z,52.20
2023-01-09T05:17:04.641Z,52.20
2023-01-09T05:19:31.521Z,52.20
2023-01-09T05:21:58.429Z,52.20
2023-01-09T05:24:25.311Z,52.10
2023-01-09T05:26:52.230Z,52.20
2023-01-09T05:29:19.156Z,52.20
2023-01-09T05:31:46.295Z,52.20
2023-01-09T05:34:13.454Z,52.20
2023-01-09T05:36:40.508Z,52.10
2023-01-09T05:39:07.537Z,52.20
2023-01-09T05:41:34.445Z,52.20
2023-01-09T05:44:01.418Z,52.10
2023-01-09T05:46:28.456Z,52.10
2023-01-09T05:48:55.358Z,52.10
2023-01-09T05:51:22.478Z,52.10
2023-01-09T05:53:49.456Z,52.20
2023-01-09T05:56:16.554Z,52.10
2023-01-09T05:58:43.483Z,52.20
2023-01-09T06:01:10.434Z,52.20
2023-01-09T06:03:37.365Z,52.20
2023-01-09T06:06:04.327Z,52.20
2023-01-09T06:08:31.223Z,52.20
2023-01-09T06:10:58.083Z,52.10
2023-01-09T06:13:24.993Z,52.20
2023-01-09T06:15:51.896Z,52.10
2023-01-09T06:18:18.895Z,52.20
2023-01-09T06:20:46.093Z,52.10
2023-01-09T06:23:13.707Z,52.10
2023-01-09T06:25:41.135Z,52.10
2023-01-09T06:28:08.318Z,52.10
2023-01-09T06:30:35.432Z,52.10
2023-01-09T06:33:02.378Z,52.20
2023-01-09T06:35:29.308Z,52.20
2023-01-09T06:37:57.037Z,52.20
2023-01-09T06:40:24.008Z,52.20
2023-01-09T06:42:51.046Z,52.20
2023-01-09T06:45:18.133Z,52.20
2023-01-09T06:47:45.017Z,52.10
2023-01-09T06:50:12.804Z,52.10
2023-01-09T06:52:40.021Z,52.10
2023-01-09T06:55:08.284Z,52.10
2023-01-09T06:57:35.211Z,52.10
2023-01-09T07:00:02.356Z,52.10
2023-01-09T07:02:29.359Z,52.20
2023-01-09T07:04:56.319Z,52.20
2023-01-09T07:07:23.505Z,52.20
2023-01-09T07:09:50.543Z,52.20
2023-01-09T07:12:17.534Z,52.20
2023-01-09T07:14:44.517Z,52.20
2023-01-09T07:17:14.639Z,52.20
2023-01-09T07:19:41.653Z,52.20
2023-01-09T07:22:08.899Z,52.20
2023-01-09T07:24:35.807Z,52.00
2023-01-09T07:27:03.314Z,51.80
2023-01-09T07:29:30.702Z,51.80
2023-01-09T07:31:57.708Z,52.10
2023-01-09T07:34:24.638Z,52.20
2023-01-09T07:36:51.785Z,52.30
2023-01-09T07:39:18.710Z,52.40
2023-01-09T07:41:45.906Z,52.50
2023-01-09T07:44:14.929Z,52.60
2023-01-09T07:46:41.869Z,52.60
2023-01-09T07:49:08.907Z,52.60
2023-01-09T07:51:35.800Z,52.50
2023-01-09T07:54:02.712Z,52.40
2023-01-09T07:56:29.590Z,52.30
2023-01-09T07:58:56.482Z,52.20
2023-01-09T08:01:23.583Z,52.00
2023-01-09T08:03:50.603Z,51.80
2023-01-09T08:06:17.474Z,51.60
2023-01-09T08:08:44.481Z,51.50
2023-01-09T08:11:11.400Z,51.50
2023-01-09T08:13:38.308Z,51.30
2023-01-09T08:16:05.739Z,51.30
2023-01-09T08:18:32.719Z,51.20
2023-01-09T08:20:59.720Z,51.10
2023-01-09T08:23:26.726Z,51.00
2023-01-09T08:25:53.755Z,50.80
2023-01-09T08:28:20.782Z,50.70
2023-01-09T08:30:47.981Z,50.60
2023-01-09T08:33:15.046Z,50.50
2023-01-09T08:35:46.268Z,50.50
2023-01-09T08:38:13.243Z,50.40
2023-01-09T08:40:40.209Z,50.40
2023-01-09T08:43:25.538Z,50.40
2023-01-09T08:46:10.932Z,50.40
2023-01-09T08:48:37.830Z,50.30
2023-01-09T08:51:04.771Z,50.20
2023-01-09T08:53:31.704Z,50.00
2023-01-09T08:55:59.204Z,50.30
2023-01-09T08:58:26.339Z,50.00
2023-01-09T09:00:53.386Z,49.70
2023-01-09T09:03:21.758Z,49.70
2023-01-09T09:05:48.662Z,49.90
2023-01-09T09:08:16.551Z,49.90
2023-01-09T09:10:43.555Z,49.80
2023-01-09T09:13:10.499Z,49.70
2023-01-09T09:15:38.970Z,49.70
2023-01-09T09:18:07.214Z,49.60
2023-01-09T09:20:36.766Z,49.50
2023-01-09T09:23:04.603Z,49.40
2023-01-09T09:25:31.588Z,49.40
2023-01-09T09:28:00.971Z,49.50
2023-01-09T09:30:28.092Z,49.40
2023-01-09T09:32:55.447Z,49.40
2023-01-09T09:35:22.914Z,49.40
2023-01-09T09:38:04.689Z,49.50
2023-01-09T09:40:42.441Z,49.60
2023-01-09T09:43:30.653Z,49.90
2023-01-09T09:46:05.201Z,50.00
2023-01-09T09:48:39.277Z,49.90
2023-01-09T09:51:31.030Z,50.00
2023-01-09T09:54:14.099Z,49.90
2023-01-09T09:56:52.828Z,50.10
2023-01-09T09:59:22.957Z,50.20
2023-01-09T10:02:09.499Z,50.30
2023-01-09T10:04:41.339Z,50.60
2023-01-09T10:07:20.743Z,51.00
2023-01-09T10:09:57.676Z,51.10
2023-01-09T10:12:27.797Z,51.40
2023-01-09T10:14:57.828Z,51.70
2023-01-09T10:17:39.813Z,51.90
2023-01-09T10:20:25.255Z,52.10
2023-01-09T10:23:04.379Z,52.20
2023-01-09T10:25:34.420Z,52.50
2023-01-09T10:28:18.135Z,52.40
2023-01-09T10:30:49.571Z,52.80
2023-01-09T10:33:40.768Z,53.00
2023-01-09T10:36:29.427Z,52.90
2023-01-09T10:39:00.172Z,53.00
2023-01-09T10:41:55.000Z,52.90
2023-01-09T10:44:37.431Z,52.90
2023-01-09T10:47:08.880Z,53.00
2023-01-09T10:49:37.179Z,52.90
2023-01-09T10:52:16.893Z,52.80
2023-01-09T10:55:03.371Z,52.50
2023-01-09T10:57:43.081Z,52.40
2023-01-09T11:00:23.576Z,52.20
2023-01-09T11:02:52.179Z,52.00
2023-01-09T11:05:25.140Z,52.00
2023-01-09T11:07:57.351Z,51.80
2023-01-09T11:10:24.609Z,51.90
2023-01-09T11:12:51.502Z,51.80
2023-01-09T11:15:31.845Z,51.80
2023-01-09T11:18:17.337Z,51.80
2023-01-09T11:20:44.238Z,51.80
2023-01-09T11:23:29.087Z,51.90
2023-01-09T11:25:58.952Z,51.90
2023-01-09T11:28:26.034Z,52.60
2023-01-09T11:31:01.230Z,52.00
2023-01-09T11:33:30.974Z,51.90
2023-01-09T11:36:04.439Z,51.90
2023-01-09T11:38:33.513Z,52.00
2023-01-09T11:41:02.622Z,52.00
2023-01-09T11:43:38.298Z,52.00
2023-01-09T11:46:08.767Z,52.00
2023-01-09T11:48:55.029Z,52.00
2023-01-09T11:51:25.054Z,52.00
2023-01-09T11:54:26.010Z,52.00
2023-01-09T11:56:53.446Z,52.00
2023-01-09T11:59:23.578Z,52.10
2023-01-09T12:02:10.641Z,52.20
2023-01-09T12:05:07.187Z,52.20
2023-01-09T12:07:55.123Z,52.20
2023-01-09T12:10:49.631Z,52.10
2023-01-09T12:13:16.532Z,52.20
2023-01-09T12:15:43.419Z,52.30
2023-01-09T12:18:25.422Z,52.30
2023-01-09T12:20:55.217Z,52.30
2023-01-09T12:23:33.059Z,52.20
2023-01-09T12:26:09.398Z,52.30
2023-01-09T12:28:42.784Z,52.30
2023-01-09T12:31:15.899Z,52.40
2023-01-09T12:33:42.805Z,52.40
2023-01-09T12:36:30.710Z,52.30
2023-01-09T12:39:03.494Z,52.20
2023-01-09T12:41:58.810Z,52.20
2023-01-09T12:44:36.555Z,52.10
2023-01-09T12:47:26.779Z,52.10
2023-01-09T12:49:57.775Z,52.00
2023-01-09T12:52:29.191Z,52.20
2023-01-09T12:55:05.104Z,52.20
2023-01-09T12:57:39.110Z,52.10
2023-01-09T13:00:21.450Z,52.20
2023-01-09T13:02:57.597Z,52.00
2023-01-09T13:05:34.139Z,52.10
2023-01-09T13:08:04.884Z,52.00
2023-01-09T13:10:35.508Z,52.00
2023-01-09T13:13:18.992Z,52.00
2023-01-09T13:15:53.170Z,52.00
2023-01-09T13:18:49.395Z,52.00
2023-01-09T13:21:16.541Z,52.10
2023-01-09T13:24:10.869Z,52.20
2023-01-09T13:26:51.973Z,52.00
2023-01-09T13:29:37.731Z,52.10
2023-01-09T13:32:19.891Z,52.10
2023-01-09T13:34:48.989Z,52.10
2023-01-09T13:37:26.153Z,52.00
2023-01-09T13:40:01.396Z,51.90
2023-01-09T13:42:46.153Z,52.00
2023-01-09T13:45:20.645Z,51.90
2023-01-09T13:47:47.703Z,51.90
2023-01-09T13:50:27.069Z,51.90
2023-01-09T13:52:54.008Z,52.00
2023-01-09T13:55:23.682Z,51.90
2023-01-09T13:58:06.065Z,52.00
2023-01-09T14:00:36.117Z,51.90
2023-01-09T14:03:20.725Z,51.90
2023-01-09T14:05:47.614Z,52.00
2023-01-09T14:08:28.641Z,51.90
2023-01-09T14:11:04.044Z,52.00
2023-01-09T14:13:39.839Z,52.00
2023-01-09T14:16:15.637Z,52.00
2023-01-09T14:19:26.860Z,51.90
2023-01-09T14:21:56.634Z,51.80
2023-01-09T14:24:32.765Z,51.90
2023-01-09T14:27:00.865Z,52.00
2023-01-09T14:29:43.460Z,52.00
2023-01-09T14:32:33.921Z,52.00
2023-01-09T14:35:13.189Z,52.00
2023-01-09T14:37:41.149Z,52.00
2023-01-09T14:40:15.792Z,52.20
2023-01-09T14:42:44.738Z,52.10
2023-01-09T14:45:24.340Z,52.10
2023-01-09T14:48:06.189Z,52.10
2023-01-09T14:50:34.350Z,52.20
2023-01-09T14:53:08.178Z,52.30
2023-01-09T14:55:53.726Z,52.40
2023-01-09T14:58:22.910Z,52.30
2023-01-09T15:01:03.277Z,52.30
2023-01-09T15:03:44.036Z,52.40
2023-01-09T15:06:15.368Z,53.00
2023-01-09T15:08:45.921Z,53.00
2023-01-09T15:11:13.993Z,53.30
2023-01-09T15:13:48.775Z,53.40
2023-01-09T15:16:23.609Z,53.50
2023-01-09T15:18:53.996Z,53.50
2023-01-09T15:21:25.887Z,53.60
2023-01-09T15:23:53.421Z,53.60
2023-01-09T15:26:29.235Z,53.70
2023-01-09T15:29:17.563Z,53.70
2023-01-09T15:31:50.118Z,53.80
2023-01-09T15:34:24.894Z,54.00
2023-01-09T15:36:52.775Z,54.40
2023-01-09T15:39:31.721Z,54.60
2023-01-09T15:42:18.250Z,54.80
2023-01-09T15:44:46.607Z,54.90
2023-01-09T15:47:18.141Z,55.10
2023-01-09T15:49:46.379Z,55.30
2023-01-09T15:52:15.371Z,55.10
2023-01-09T15:54:43.871Z,55.10
2023-01-09T15:57:27.905Z,55.00
2023-01-09T15:59:56.178Z,54.90
2023-01-09T16:02:50.419Z,54.90
2023-01-09T16:05:17.811Z,54.90
2023-01-09T16:07:48.793Z,55.00
2023-01-09T16:10:24.271Z,55.00
2023-01-09T16:12:52.796Z,54.90
2023-01-09T16:15:20.513Z,55.00
2023-01-09T16:18:06.007Z,55.00
2023-01-09T16:20:33.067Z,55.00
2023-01-09T16:23:01.369Z,55.20
2023-01-09T16:25:34.240Z,56.00
2023-01-09T16:28:21.115Z,55.40
2023-01-09T16:30:54.431Z,56.00
2023-01-09T16:33:27.407Z,56.20
2023-01-09T16:35:54.635Z,56.50
2023-01-09T16:38:22.807Z,56.50
2023-01-09T16:41:18.513Z,56.80
2023-01-09T16:43:46.169Z,57.70
2023-01-09T16:46:17.148Z,57.20
2023-01-09T16:48:44.314Z,57.70
2023-01-09T16:51:15.855Z,57.60
2023-01-09T16:53:43.636Z,57.60
2023-01-09T16:56:29.848Z,57.50
2023-01-09T16:58:57.106Z,57.40
2023-01-09T17:01:24.205Z,57.10
2023-01-09T17:03:52.573Z,57.30
2023-01-09T17:06:27.047Z,57.30
2023-01-09T17:08:53.986Z,57.00
2023-01-09T17:11:32.640Z,57.00
2023-01-09T17:14:00.255Z,56.80
2023-01-09T17:16:28.648Z,56.70
2023-01-09T17:18:56.150Z,56.50
2023-01-09T17:21:25.243Z,56.30
2023-01-09T17:24:12.239Z,56.10
2023-01-09T17:26:59.990Z,56.00
2023-01-09T17:29:27.804Z,55.90
2023-01-09T17:31:54.889Z,55.70
2023-01-09T17:34:21.959Z,55.60
2023-01-09T17:36:48.923Z,55.40
2023-01-09T17:39:17.064Z,55.30
2023-01-09T17:41:44.538Z,55.20
2023-01-09T17:44:11.970Z,55.00
2023-01-09T17:46:41.192Z,54.80
2023-01-09T17:49:10.344Z,54.80
2023-01-09T17:51:37.222Z,54.70
2023-01-09T17:54:04.334Z,54.80
2023-01-09T17:56:34.041Z,54.70
2023-01-09T17:59:00.916Z,54.50
2023-01-09T18:01:27.971Z,54.40
2023-01-09T18:03:55.001Z,54.30
2023-01-09T18:06:22.933Z,54.10
2023-01-09T18:08:49.993Z,54.00
2023-01-09T18:11:22.639Z,53.80
2023-01-09T18:13:53.647Z,53.80
2023-01-09T18:16:26.184Z,53.90
2023-01-09T18:18:54.521Z,53.80
2023-01-09T18:21:23.268Z,53.60
2023-01-09T18:23:50.325Z,53.40
2023-01-09T18:26:21.153Z,53.40
2023-01-09T18:29:06.501Z,53.30
2023-01-09T18:31:33.511Z,53.00
2023-01-09T18:34:05.223Z,53.30
2023-01-09T18:36:32.289Z,53.10
2023-01-09T18:39:01.557Z,53.20
2023-01-09T18:41:28.884Z,53.10
2023-01-09T18:44:00.283Z,53.10
2023-01-09T18:46:32.029Z,53.40
2023-01-09T18:49:03.558Z,53.60
2023-01-09T18:51:32.017Z,53.50
2023-01-09T18:53:58.883Z,53.50
2023-01-09T18:56:25.838Z,53.40
2023-01-09T18:58:59.457Z,53.50
2023-01-09T19:01:28.295Z,53.30
2023-01-09T19:03:56.570Z,53.50
2023-01-09T19:06:23.711Z,53.50
2023-01-09T19:08:50.653Z,51.90
2023-01-09T19:11:18.225Z,52.50
2023-01-09T19:13:45.277Z,53.50
2023-01-09T19:16:12.336Z,53.70
2023-01-09T19:18:40.951Z,53.60
2023-01-09T19:21:12.060Z,53.50
2023-01-09T19:23:39.967Z,53.40
2023-01-09T19:26:08.983Z,53.40
2023-01-09T19:28:36.561Z,53.40
2023-01-09T19:31:03.808Z,53.20
2023-01-09T19:33:30.815Z,53.30
2023-01-09T19:35:58.056Z,53.20
2023-01-09T19:38:26.817Z,53.20
2023-01-09T19:40:53.693Z,53.10
2023-01-09T19:43:26.631Z,53.10
2023-01-09T19:45:54.952Z,53.10
2023-01-09T19:48:23.206Z,53.00
2023-01-09T19:50:50.152Z,53.00
2023-01-09T19:53:17.185Z,53.20
2023-01-09T19:55:44.187Z,53.10
2023-01-09T19:58:11.305Z,53.10
2023-01-09T20:00:39.224Z,53.00
2023-01-09T20:03:06.174Z,53.00
2023-01-09T20:05:33.435Z,53.00
2023-01-09T20:08:00.358Z,53.00
2023-01-09T20:10:27.320Z,53.00
2023-01-09T20:12:54.632Z,52.90
2023-01-09T20:15:22.748Z,52.90
2023-01-09T20:17:49.691Z,52.80
2023-01-09T20:22:43.408Z,52.90
2023-01-09T20:25:10.488Z,52.80
2023-01-09T20:27:37.579Z,52.80
2023-01-09T20:30:05.417Z,52.70
2023-01-09T20:32:32.562Z,52.70
2023-01-09T20:35:00.735Z,52.80
2023-01-09T20:37:27.772Z,52.70
2023-01-09T20:39:55.826Z,52.70
2023-01-09T20:42:22.757Z,52.80
2023-01-09T20:44:49.685Z,52.70
2023-01-09T20:47:16.631Z,52.60
2023-01-09T20:49:43.528Z,52.70
2023-01-09T20:52:10.437Z,52.70
2023-01-09T20:54:41.056Z,52.70
2023-01-09T20:57:07.986Z,52.80
2023-01-09T20:59:34.895Z,52.70
2023-01-09T21:02:01.777Z,52.80
2023-01-09T21:04:30.204Z,52.70
2023-01-09T21:06:57.163Z,52.70
2023-01-09T21:09:26.117Z,52.50
2023-01-09T21:11:53.036Z,52.70
2023-01-09T21:14:20.223Z,52.40
2023-01-09T21:16:54.709Z,52.50
2023-01-09T21:19:22.699Z,52.40
2023-01-09T21:21:52.247Z,52.40
2023-01-09T21:24:20.100Z,52.40
2023-01-09T21:26:46.933Z,52.30
2023-01-09T21:29:13.930Z,52.30
2023-01-09T21:31:40.847Z,52.30
2023-01-09T21:34:08.220Z,52.20
2023-01-09T21:36:35.887Z,52.20
2023-01-09T21:39:07.465Z,52.10
2023-01-09T21:42:10.147Z,52.10
2023-01-09T21:44:55.960Z,52.20
2023-01-09T21:47:22.979Z,52.20
2023-01-09T21:49:49.924Z,52.20
2023-01-09T21:52:18.394Z,52.20
2023-01-09T21:54:45.362Z,52.10
2023-01-09T21:57:13.025Z,52.20
2023-01-09T21:59:39.992Z,52.10
2023-01-09T22:02:07.000Z,52.20
2023-01-09T22:04:33.961Z,52.00
2023-01-09T22:07:00.884Z,52.10
2023-01-09T22:09:27.764Z,52.10
2023-01-09T22:11:54.781Z,52.10
2023-01-09T22:14:21.847Z,52.00
2023-01-09T22:16:48.896Z,52.10
2023-01-09T22:19:18.127Z,52.10
2023-01-09T22:21:45.125Z,52.20
2023-01-09T22:24:17.672Z,52.10
2023-01-09T22:26:45.123Z,52.40
2023-01-09T22:29:12.371Z,52.30
2023-01-09T22:31:40.177Z,52.20
2023-01-09T22:34:07.600Z,52.20
2023-01-09T22:36:34.693Z,52.30
2023-01-09T22:39:01.769Z,52.20
2023-01-09T22:41:32.372Z,52.10
2023-01-09T22:43:59.799Z,52.10
2023-01-09T22:46:26.830Z,52.10
2023-01-09T22:48:53.743Z,52.10
2023-01-09T22:51:21.758Z,52.00
2023-01-09T22:53:49.298Z,52.00
2023-01-09T22:56:21.092Z,52.00
2023-01-09T22:58:52.662Z,52.00
2023-01-09T23:01:20.254Z,52.00
2023-01-09T23:03:47.199Z,51.90
2023-01-09T23:06:21.999Z,51.90
2023-01-09T23:08:53.522Z,52.00
2023-01-09T23:11:42.318Z,52.00
2023-01-09T23:14:10.051Z,51.90
2023-01-09T23:16:37.192Z,52.00
2023-01-09T23:19:07.156Z,52.00
2023-01-09T23:21:34.079Z,51.90
2023-01-09T23:24:01.037Z,51.90
2023-01-09T23:26:27.993Z,51.90
2023-01-09T23:28:54.851Z,51.80
2023-01-09T23:31:21.818Z,51.80
2023-01-09T23:33:48.711Z,51.80
2023-01-09T23:36:15.639Z,51.80
2023-01-09T23:38:42.595Z,51.80
2023-01-09T23:41:09.534Z,51.80
2023-01-09T23:43:36.473Z,51.70
2023-01-09T23:46:03.438Z,51.70
2023-01-09T23:48:30.384Z,51.70
2023-01-09T23:50:57.339Z,51.60
2023-01-09T23:53:24.412Z,51.60
2023-01-09T23:55:54.690Z,51.60
2023-01-09T23:58:21.981Z,51.50
